createdAt,value
2018-02-06T00:00:03.909Z,1.25
2018-02-06T00:00:07.693Z,1.2
2018-02-06T00:00:11.475Z,1.16
2018-02-06T00:00:15.266Z,1.17
2018-02-06T00:00:19.050Z,1.2
2018-02-06T00:00:23.062Z,1.24
2018-02-06T00:00:26.856Z,1.28
2018-02-06T00:00:30.752Z,1.17
2018-02-06T00:00:34.542Z,1.26
2018-02-06T00:00:38.550Z,1.24
2018-02-06T00:00:42.442Z,1.28
2018-02-06T00:00:46.654Z,1.29
2018-02-06T00:00:50.882Z,1.26
2018-02-06T00:00:54.784Z,1.24
2018-02-06T00:00:58.571Z,1.18
2018-02-06T00:01:02.512Z,1.24
2018-02-06T00:01:06.403Z,1.24
2018-02-06T00:01:10.294Z,1.31
2018-02-06T00:01:14.086Z,1.29
2018-02-06T00:01:18.085Z,1.24
2018-02-06T00:01:22.194Z,1.32
2018-02-06T00:01:26.145Z,1.26
2018-02-06T00:01:29.936Z,1.28
2018-02-06T00:01:33.617Z,1.31
2018-02-06T00:01:37.622Z,1.28
2018-02-06T00:01:41.692Z,1.28
2018-02-06T00:01:46.091Z,1.35
2018-02-06T00:01:49.827Z,1.21
2018-02-06T00:01:53.824Z,1.24
2018-02-06T00:01:57.823Z,1.25
2018-02-06T00:02:01.612Z,1.21
2018-02-06T00:02:05.613Z,1.32
2018-02-06T00:02:09.409Z,1.21
2018-02-06T00:02:13.517Z,1.25
2018-02-06T00:02:17.417Z,1.24
2018-02-06T00:02:21.419Z,1.28
2018-02-06T00:02:25.320Z,1.31
2018-02-06T00:02:29.422Z,1.29
2018-02-06T00:02:33.427Z,1.28
2018-02-06T00:02:37.530Z,1.28
2018-02-06T00:02:41.640Z,1.26
2018-02-06T00:02:45.425Z,1.34
2018-02-06T00:02:49.324Z,1.24
2018-02-06T00:02:53.014Z,1.21
2018-02-06T00:02:56.808Z,1.31
2018-02-06T00:03:00.806Z,1.24
2018-02-06T00:03:04.594Z,1.29
2018-02-06T00:03:08.709Z,1.26
2018-02-06T00:03:12.391Z,1.34
2018-02-06T00:03:16.288Z,1.28
2018-02-06T00:03:20.498Z,1.34
2018-02-06T00:03:24.286Z,1.28
2018-02-06T00:03:28.175Z,1.24
2018-02-06T00:03:32.078Z,1.35
2018-02-06T00:03:36.078Z,1.35
2018-02-06T00:03:40.079Z,1.28
2018-02-06T00:03:43.868Z,1.26
2018-02-06T00:03:47.971Z,1.32
2018-02-06T00:03:51.657Z,1.32
2018-02-06T00:03:55.445Z,1.32
2018-02-06T00:03:59.445Z,1.2
2018-02-06T00:04:03.591Z,1.29
2018-02-06T00:04:07.483Z,1.31
2018-02-06T00:04:11.379Z,1.32
2018-02-06T00:04:15.273Z,1.21
2018-02-06T00:04:18.957Z,1.25
2018-02-06T00:04:23.071Z,1.28
2018-02-06T00:04:26.863Z,1.29
2018-02-06T00:04:30.767Z,1.29
2018-02-06T00:04:34.662Z,1.24
2018-02-06T00:04:38.868Z,1.24
2018-02-06T00:04:42.869Z,1.31
2018-02-06T00:04:46.764Z,1.18
2018-02-06T00:04:50.656Z,1.24
2018-02-06T00:04:54.708Z,1.2
2018-02-06T00:04:58.393Z,1.31
2018-02-06T00:05:02.388Z,1.24
2018-02-06T00:05:06.504Z,1.29
2018-02-06T00:05:10.401Z,1.26
2018-02-06T00:05:14.403Z,1.26
2018-02-06T00:05:18.509Z,1.2
2018-02-06T00:05:22.401Z,1.24
2018-02-06T00:05:26.402Z,1.24
2018-02-06T00:05:30.197Z,1.21
2018-02-06T00:05:34.201Z,1.18
2018-02-06T00:05:38.520Z,1.31
2018-02-06T00:05:42.412Z,1.21
2018-02-06T00:05:46.304Z,1.29
2018-02-06T00:05:50.514Z,1.18
2018-02-06T00:05:54.516Z,1.18
2018-02-06T00:05:58.305Z,1.21
2018-02-06T00:06:02.093Z,1.24
2018-02-06T00:06:06.098Z,1.24
2018-02-06T00:06:10.205Z,1.25
2018-02-06T00:06:14.117Z,1.25
2018-02-06T00:06:18.116Z,1.21
2018-02-06T00:06:22.112Z,1.18
2018-02-06T00:06:26.221Z,1.28
2018-02-06T00:06:29.903Z,1.2
2018-02-06T00:06:33.699Z,1.2
2018-02-06T00:06:37.594Z,1.29
2018-02-06T00:06:41.697Z,1.31
2018-02-06T00:06:45.590Z,1.21
2018-02-06T00:06:49.277Z,1.32
2018-02-06T00:06:52.957Z,1.17
2018-02-06T00:06:56.956Z,1.25
2018-02-06T00:07:00.958Z,1.21
2018-02-06T00:07:04.750Z,1.26
2018-02-06T00:07:08.955Z,1.25
2018-02-06T00:07:12.916Z,1.26
2018-02-06T00:07:16.917Z,1.17
2018-02-06T00:07:21.018Z,1.26
2018-02-06T00:07:24.923Z,1.2
2018-02-06T00:07:28.709Z,1.26
2018-02-06T00:07:32.709Z,1.26
2018-02-06T00:07:36.930Z,1.26
2018-02-06T00:07:40.611Z,1.2
2018-02-06T00:07:44.501Z,1.25
2018-02-06T00:07:48.396Z,1.24
2018-02-06T00:07:52.187Z,1.24
2018-02-06T00:07:56.076Z,1.26
2018-02-06T00:08:00.074Z,1.21
2018-02-06T00:08:04.546Z,1.26
2018-02-06T00:08:08.232Z,1.24
2018-02-06T00:08:12.342Z,1.25
2018-02-06T00:08:16.236Z,1.28
2018-02-06T00:08:20.340Z,1.26
2018-02-06T00:08:24.454Z,1.25
2018-02-06T00:08:28.245Z,1.25
2018-02-06T00:08:32.247Z,1.25
2018-02-06T00:08:36.361Z,1.24
2018-02-06T00:08:40.368Z,1.21
2018-02-06T00:08:44.261Z,1.21
2018-02-06T00:08:47.950Z,1.25
2018-02-06T00:08:52.113Z,1.2
2018-02-06T00:08:56.123Z,1.21
2018-02-06T00:09:00.119Z,1.25
2018-02-06T00:09:04.113Z,1.24
2018-02-06T00:09:07.901Z,1.2
2018-02-06T00:09:12.016Z,1.24
2018-02-06T00:09:16.012Z,1.24
2018-02-06T00:09:19.917Z,1.25
2018-02-06T00:09:23.930Z,1.25
2018-02-06T00:09:27.720Z,1.18
2018-02-06T00:09:31.719Z,1.18
2018-02-06T00:09:35.722Z,1.25
2018-02-06T00:09:39.617Z,1.25
2018-02-06T00:09:43.622Z,1.21
2018-02-06T00:09:47.411Z,1.25
2018-02-06T00:09:51.091Z,1.26
2018-02-06T00:09:54.880Z,1.21
2018-02-06T00:09:58.570Z,1.26
2018-02-06T00:10:02.551Z,1.21
2018-02-06T00:10:06.449Z,1.25
2018-02-06T00:10:10.243Z,1.18
2018-02-06T00:10:14.252Z,1.25
2018-02-06T00:10:18.151Z,1.24
2018-02-06T00:10:22.163Z,1.21
2018-02-06T00:10:26.168Z,1.16
2018-02-06T00:10:30.283Z,1.24
2018-02-06T00:10:34.284Z,1.26
2018-02-06T00:10:38.395Z,1.28
2018-02-06T00:10:42.295Z,1.21
2018-02-06T00:10:46.404Z,1.18
2018-02-06T00:10:50.299Z,1.24
2018-02-06T00:10:54.360Z,1.17
2018-02-06T00:10:58.256Z,1.25
2018-02-06T00:11:02.402Z,1.26
2018-02-06T00:11:06.408Z,1.24
2018-02-06T00:11:10.302Z,1.25
2018-02-06T00:11:14.093Z,1.24
2018-02-06T00:11:17.986Z,1.21
2018-02-06T00:11:21.880Z,1.26
2018-02-06T00:11:25.877Z,1.21
2018-02-06T00:11:29.775Z,1.25
2018-02-06T00:11:33.563Z,1.24
2018-02-06T00:11:37.563Z,1.25
2018-02-06T00:11:41.468Z,1.21
2018-02-06T00:11:45.365Z,1.24
2018-02-06T00:11:49.259Z,1.21
2018-02-06T00:11:53.044Z,1.28
2018-02-06T00:11:56.951Z,1.21
2018-02-06T00:12:01.157Z,1.25
2018-02-06T00:12:05.541Z,1.25
2018-02-06T00:12:09.440Z,1.25
2018-02-06T00:12:13.442Z,1.21
2018-02-06T00:12:17.342Z,1.2
2018-02-06T00:12:21.336Z,1.25
2018-02-06T00:12:25.341Z,1.21
2018-02-06T00:12:29.344Z,1.25
2018-02-06T00:12:33.239Z,1.25
2018-02-06T00:12:37.241Z,1.21
2018-02-06T00:12:41.137Z,1.25
2018-02-06T00:12:45.029Z,1.26
2018-02-06T00:12:49.034Z,1.25
2018-02-06T00:12:53.042Z,1.21
2018-02-06T00:12:56.935Z,1.18
2018-02-06T00:13:00.934Z,1.25
2018-02-06T00:13:05.034Z,1.25
2018-02-06T00:13:09.142Z,1.18
2018-02-06T00:13:13.143Z,1.25
2018-02-06T00:13:17.143Z,1.24
2018-02-06T00:13:21.254Z,1.18
2018-02-06T00:13:25.049Z,1.26
2018-02-06T00:13:29.045Z,1.18
2018-02-06T00:13:33.049Z,1.21
2018-02-06T00:13:36.951Z,1.18
2018-02-06T00:13:40.846Z,1.17
2018-02-06T00:13:44.851Z,1.18
2018-02-06T00:13:48.749Z,1.18
2018-02-06T00:13:52.533Z,1.21
2018-02-06T00:13:56.448Z,1.34
2018-02-06T00:14:00.335Z,1.21
2018-02-06T00:14:04.333Z,1.26
2018-02-06T00:14:08.336Z,1.35
2018-02-06T00:14:12.344Z,1.28
2018-02-06T00:14:16.245Z,1.32
2018-02-06T00:14:20.239Z,1.24
2018-02-06T00:14:23.925Z,1.29
2018-02-06T00:14:27.712Z,1.28
2018-02-06T00:14:31.607Z,1.31
2018-02-06T00:14:35.609Z,1.32
2018-02-06T00:14:39.609Z,1.24
2018-02-06T00:14:43.713Z,1.26
2018-02-06T00:14:47.603Z,1.29
2018-02-06T00:14:51.712Z,1.29
2018-02-06T00:14:55.397Z,1.32
2018-02-06T00:14:59.298Z,1.32
2018-02-06T00:15:03.571Z,1.28
2018-02-06T00:15:07.676Z,1.32
2018-02-06T00:15:11.782Z,1.32
2018-02-06T00:15:15.787Z,1.32
2018-02-06T00:15:19.681Z,1.29
2018-02-06T00:15:23.691Z,1.35
2018-02-06T00:15:27.805Z,1.31
2018-02-06T00:15:31.804Z,1.25
2018-02-06T00:15:35.698Z,1.24
2018-02-06T00:15:39.702Z,1.31
2018-02-06T00:15:43.388Z,1.32
2018-02-06T00:15:47.281Z,1.32
2018-02-06T00:15:51.071Z,1.24
2018-02-06T00:15:55.083Z,1.35
2018-02-06T00:15:58.975Z,1.34
2018-02-06T00:16:03.244Z,1.25
2018-02-06T00:16:07.146Z,1.28
2018-02-06T00:16:10.934Z,1.24
2018-02-06T00:16:14.732Z,1.34
2018-02-06T00:16:18.840Z,1.28
2018-02-06T00:16:22.846Z,1.31
2018-02-06T00:16:26.851Z,1.29
2018-02-06T00:16:30.747Z,1.25
2018-02-06T00:16:34.750Z,1.24
2018-02-06T00:16:38.647Z,1.35
2018-02-06T00:16:42.654Z,1.35
2018-02-06T00:16:46.771Z,1.29
2018-02-06T00:16:50.560Z,1.31
2018-02-06T00:16:54.352Z,1.31
2018-02-06T00:16:58.463Z,1.34
2018-02-06T00:17:02.348Z,1.24
2018-02-06T00:17:06.138Z,1.32
2018-02-06T00:17:09.926Z,1.26
2018-02-06T00:17:13.715Z,1.25
2018-02-06T00:17:17.731Z,1.28
2018-02-06T00:17:21.945Z,1.25
2018-02-06T00:17:25.841Z,1.18
2018-02-06T00:17:29.949Z,1.26
2018-02-06T00:17:34.054Z,1.35
2018-02-06T00:17:38.154Z,1.32
2018-02-06T00:17:42.052Z,1.24
2018-02-06T00:17:46.054Z,1.38
2018-02-06T00:17:50.059Z,1.24
2018-02-06T00:17:54.160Z,1.31
2018-02-06T00:17:57.951Z,1.36
2018-02-06T00:18:01.846Z,1.17
2018-02-06T00:18:06.052Z,1.21
2018-02-06T00:18:10.063Z,1.25
2018-02-06T00:18:14.065Z,1.29
2018-02-06T00:18:18.072Z,1.31
2018-02-06T00:18:21.962Z,1.28
2018-02-06T00:18:25.752Z,1.32
2018-02-06T00:18:29.751Z,1.29
2018-02-06T00:18:33.748Z,1.24
2018-02-06T00:18:37.750Z,1.35
2018-02-06T00:18:41.974Z,1.26
2018-02-06T00:18:46.198Z,1.34
2018-02-06T00:18:49.987Z,1.25
2018-02-06T00:18:54.087Z,1.26
2018-02-06T00:18:57.773Z,1.31
2018-02-06T00:19:01.771Z,1.34
2018-02-06T00:19:05.568Z,1.31
2018-02-06T00:19:09.461Z,1.2
2018-02-06T00:19:13.351Z,1.32
2018-02-06T00:19:17.350Z,1.31
2018-02-06T00:19:21.140Z,1.29
2018-02-06T00:19:25.032Z,1.31
2018-02-06T00:19:28.924Z,1.35
2018-02-06T00:19:33.027Z,1.2
2018-02-06T00:19:37.022Z,1.31
2018-02-06T00:19:40.923Z,1.31
2018-02-06T00:19:44.714Z,1.26
2018-02-06T00:19:48.503Z,1.35
2018-02-06T00:19:52.289Z,1.32
2018-02-06T00:19:56.076Z,1.31
2018-02-06T00:19:59.862Z,1.26
2018-02-06T00:20:03.925Z,1.28
2018-02-06T00:20:07.712Z,1.24
2018-02-06T00:20:11.721Z,1.36
2018-02-06T00:20:15.513Z,1.25
2018-02-06T00:20:19.510Z,1.21
2018-02-06T00:20:23.505Z,1.31
2018-02-06T00:20:27.316Z,1.31
2018-02-06T00:20:31.375Z,1.32
2018-02-06T00:20:35.400Z,1.31
2018-02-06T00:20:39.184Z,1.28
2018-02-06T00:20:42.972Z,1.32
2018-02-06T00:20:47.085Z,1.28
2018-02-06T00:20:50.981Z,1.29
2018-02-06T00:20:54.870Z,1.28
2018-02-06T00:20:58.661Z,1.24
2018-02-06T00:21:02.451Z,1.24
2018-02-06T00:21:06.237Z,1.26
2018-02-06T00:21:10.031Z,1.32
2018-02-06T00:21:13.817Z,1.24
2018-02-06T00:21:17.607Z,1.21
2018-02-06T00:21:21.289Z,1.32
2018-02-06T00:21:25.184Z,1.35
2018-02-06T00:21:28.971Z,1.31
2018-02-06T00:21:32.752Z,1.31
2018-02-06T00:21:36.859Z,1.24
2018-02-06T00:21:40.861Z,1.35
2018-02-06T00:21:44.862Z,1.32
2018-02-06T00:21:48.794Z,1.32
2018-02-06T00:21:52.690Z,1.32
2018-02-06T00:21:56.587Z,1.31
2018-02-06T00:22:00.589Z,1.26
2018-02-06T00:22:04.690Z,1.29
2018-02-06T00:22:08.692Z,1.36
2018-02-06T00:22:12.592Z,1.24
2018-02-06T00:22:16.376Z,1.35
2018-02-06T00:22:20.165Z,1.29
2018-02-06T00:22:24.060Z,1.34
2018-02-06T00:22:27.853Z,1.31
2018-02-06T00:22:31.744Z,1.32
2018-02-06T00:22:35.525Z,1.32
2018-02-06T00:22:39.415Z,1.29
2018-02-06T00:22:43.311Z,1.36
2018-02-06T00:22:47.307Z,1.29
2018-02-06T00:22:51.517Z,1.36
2018-02-06T00:22:55.198Z,1.32
2018-02-06T00:22:59.091Z,1.34
2018-02-06T00:23:03.249Z,1.31
2018-02-06T00:23:07.034Z,1.35
2018-02-06T00:23:10.830Z,1.36
2018-02-06T00:23:15.063Z,1.35
2018-02-06T00:23:18.852Z,1.35
2018-02-06T00:23:22.956Z,1.32
2018-02-06T00:23:27.162Z,1.34
2018-02-06T00:23:31.271Z,1.31
2018-02-06T00:23:34.951Z,1.32
2018-02-06T00:23:38.967Z,1.36
2018-02-06T00:23:42.968Z,1.35
2018-02-06T00:23:46.863Z,1.34
2018-02-06T00:23:50.652Z,1.32
2018-02-06T00:23:54.548Z,1.31
2018-02-06T00:23:58.438Z,1.34
2018-02-06T00:24:02.489Z,1.35
2018-02-06T00:24:06.273Z,1.34
2018-02-06T00:24:10.277Z,1.35
2018-02-06T00:24:14.280Z,1.38
2018-02-06T00:24:18.389Z,1.32
2018-02-06T00:24:22.601Z,1.38
2018-02-06T00:24:26.390Z,1.35
2018-02-06T00:24:30.396Z,1.35
2018-02-06T00:24:34.185Z,1.31
2018-02-06T00:24:38.179Z,1.34
2018-02-06T00:24:42.072Z,1.34
2018-02-06T00:24:46.068Z,1.32
2018-02-06T00:24:50.077Z,1.35
2018-02-06T00:24:54.080Z,1.36
2018-02-06T00:24:57.972Z,1.34
2018-02-06T00:25:02.119Z,1.31
2018-02-06T00:25:06.118Z,1.35
2018-02-06T00:25:10.119Z,1.29
2018-02-06T00:25:13.910Z,1.32
2018-02-06T00:25:17.810Z,1.43
2018-02-06T00:25:21.608Z,1.32
2018-02-06T00:25:25.613Z,1.29
2018-02-06T00:25:29.616Z,1.35
2018-02-06T00:25:33.410Z,1.32
2018-02-06T00:25:37.513Z,1.32
2018-02-06T00:25:41.518Z,1.43
2018-02-06T00:25:45.312Z,1.32
2018-02-06T00:25:49.212Z,1.5
2018-02-06T00:25:53.000Z,1.38
2018-02-06T00:25:57.095Z,1.43
2018-02-06T00:26:01.094Z,1.34
2018-02-06T00:26:05.207Z,1.46
2018-02-06T00:26:09.204Z,1.44
2018-02-06T00:26:13.202Z,1.32
2018-02-06T00:26:17.201Z,1.42
2018-02-06T00:26:21.095Z,1.43
2018-02-06T00:26:25.311Z,1.44
2018-02-06T00:26:29.001Z,1.34
2018-02-06T00:26:33.000Z,1.43
2018-02-06T00:26:36.900Z,1.39
2018-02-06T00:26:40.796Z,1.35
2018-02-06T00:26:44.693Z,1.44
2018-02-06T00:26:48.703Z,1.38
2018-02-06T00:26:52.703Z,1.32
2018-02-06T00:26:56.607Z,1.36
2018-02-06T00:27:00.398Z,1.35
2018-02-06T00:27:04.675Z,1.35
2018-02-06T00:27:08.360Z,1.35
2018-02-06T00:27:12.253Z,1.44
2018-02-06T00:27:16.253Z,1.44
2018-02-06T00:27:20.366Z,1.34
2018-02-06T00:27:24.472Z,1.42
2018-02-06T00:27:28.264Z,1.32
2018-02-06T00:27:32.263Z,1.34
2018-02-06T00:27:36.259Z,1.42
2018-02-06T00:27:40.368Z,1.46
2018-02-06T00:27:44.056Z,1.46
2018-02-06T00:27:47.957Z,1.43
2018-02-06T00:27:51.746Z,1.36
2018-02-06T00:27:55.532Z,1.42
2018-02-06T00:27:59.637Z,1.46
2018-02-06T00:28:03.953Z,1.35
2018-02-06T00:28:07.635Z,1.43
2018-02-06T00:28:11.641Z,1.34
2018-02-06T00:28:15.541Z,1.49
2018-02-06T00:28:19.328Z,1.44
2018-02-06T00:28:23.433Z,1.43
2018-02-06T00:28:27.229Z,1.39
2018-02-06T00:28:31.126Z,1.34
2018-02-06T00:28:35.025Z,1.47
2018-02-06T00:28:38.920Z,1.38
2018-02-06T00:28:42.716Z,1.32
2018-02-06T00:28:46.718Z,1.39
2018-02-06T00:28:50.724Z,1.32
2018-02-06T00:28:54.618Z,1.36
2018-02-06T00:28:58.510Z,1.32
2018-02-06T00:29:02.409Z,1.46
2018-02-06T00:29:06.301Z,1.34
2018-02-06T00:29:10.196Z,1.46
2018-02-06T00:29:14.091Z,1.47
2018-02-06T00:29:18.195Z,1.32
2018-02-06T00:29:22.198Z,1.44
2018-02-06T00:29:25.993Z,1.43
2018-02-06T00:29:29.991Z,1.42
2018-02-06T00:29:33.890Z,1.34
2018-02-06T00:29:37.784Z,1.44
2018-02-06T00:29:41.681Z,1.39
2018-02-06T00:29:45.365Z,1.42
2018-02-06T00:29:49.157Z,1.42
2018-02-06T00:29:52.947Z,1.34
2018-02-06T00:29:56.943Z,1.42
2018-02-06T00:30:00.738Z,1.32
2018-02-06T00:30:04.950Z,1.32
2018-02-06T00:30:08.852Z,1.34
2018-02-06T00:30:12.755Z,1.32
2018-02-06T00:30:16.661Z,1.38
2018-02-06T00:30:20.659Z,1.34
2018-02-06T00:30:24.546Z,1.32
2018-02-06T00:30:28.545Z,1.35
2018-02-06T00:30:32.445Z,1.31
2018-02-06T00:30:36.447Z,1.32
2018-02-06T00:30:40.344Z,1.36
2018-02-06T00:30:44.233Z,1.29
2018-02-06T00:30:48.017Z,1.31
2018-02-06T00:30:52.032Z,1.35
2018-02-06T00:30:55.822Z,1.36
2018-02-06T00:30:59.736Z,1.32
2018-02-06T00:31:03.627Z,1.36
2018-02-06T00:31:07.520Z,1.26
2018-02-06T00:31:11.627Z,1.36
2018-02-06T00:31:15.308Z,1.38
2018-02-06T00:31:19.414Z,1.34
2018-02-06T00:31:23.730Z,1.38
2018-02-06T00:31:27.746Z,1.32
2018-02-06T00:31:31.958Z,1.29
2018-02-06T00:31:36.171Z,1.32
2018-02-06T00:31:39.955Z,1.35
2018-02-06T00:31:43.749Z,1.31
2018-02-06T00:31:47.800Z,1.35
2018-02-06T00:31:51.801Z,1.35
2018-02-06T00:31:55.908Z,1.34
2018-02-06T00:31:59.693Z,1.35
2018-02-06T00:32:03.800Z,1.42
2018-02-06T00:32:07.484Z,1.31
2018-02-06T00:32:11.379Z,1.34
2018-02-06T00:32:15.273Z,1.36
2018-02-06T00:32:19.167Z,1.38
2018-02-06T00:32:23.064Z,1.35
2018-02-06T00:32:27.059Z,1.34
2018-02-06T00:32:30.848Z,1.32
2018-02-06T00:32:34.847Z,1.32
2018-02-06T00:32:38.735Z,1.38
2018-02-06T00:32:42.416Z,1.32
2018-02-06T00:32:46.204Z,1.32
2018-02-06T00:32:50.098Z,1.32
2018-02-06T00:32:54.206Z,1.32
2018-02-06T00:32:58.516Z,1.31
2018-02-06T00:33:02.563Z,1.36
2018-02-06T00:33:06.353Z,1.32
2018-02-06T00:33:10.354Z,1.34
2018-02-06T00:33:14.458Z,1.35
2018-02-06T00:33:18.568Z,1.38
2018-02-06T00:33:22.467Z,1.38
2018-02-06T00:33:26.365Z,1.32
2018-02-06T00:33:30.369Z,1.35
2018-02-06T00:33:34.259Z,1.36
2018-02-06T00:33:38.251Z,1.35
2018-02-06T00:33:42.249Z,1.36
2018-02-06T00:33:46.043Z,1.34
2018-02-06T00:33:49.939Z,1.32
2018-02-06T00:33:53.625Z,1.29
2018-02-06T00:33:57.732Z,1.36
2018-02-06T00:34:01.417Z,1.28
2018-02-06T00:34:05.413Z,1.31
2018-02-06T00:34:09.750Z,1.38
2018-02-06T00:34:13.830Z,1.34
2018-02-06T00:34:17.832Z,1.29
2018-02-06T00:34:21.937Z,1.29
2018-02-06T00:34:25.622Z,1.32
2018-02-06T00:34:29.518Z,1.35
2018-02-06T00:34:33.522Z,1.35
2018-02-06T00:34:37.413Z,1.32
2018-02-06T00:34:41.411Z,1.34
2018-02-06T00:34:45.412Z,1.35
2018-02-06T00:34:49.307Z,1.34
2018-02-06T00:34:53.203Z,1.43
2018-02-06T00:34:56.991Z,1.31
2018-02-06T00:35:00.890Z,1.31
2018-02-06T00:35:05.149Z,1.36
2018-02-06T00:35:09.045Z,1.32
2018-02-06T00:35:12.835Z,1.34
2018-02-06T00:35:16.721Z,1.35
2018-02-06T00:35:20.734Z,1.31
2018-02-06T00:35:24.841Z,1.31
2018-02-06T00:35:28.846Z,1.31
2018-02-06T00:35:32.744Z,1.32
2018-02-06T00:35:36.752Z,1.35
2018-02-06T00:35:40.643Z,1.38
2018-02-06T00:35:44.535Z,1.36
2018-02-06T00:35:48.538Z,1.35
2018-02-06T00:35:52.757Z,1.32
2018-02-06T00:35:56.654Z,1.32
2018-02-06T00:36:00.551Z,1.31
2018-02-06T00:36:04.451Z,1.32
2018-02-06T00:36:08.569Z,1.35
2018-02-06T00:36:12.673Z,1.34
2018-02-06T00:36:16.468Z,1.34
2018-02-06T00:36:20.372Z,1.34
2018-02-06T00:36:24.593Z,1.34
2018-02-06T00:36:28.490Z,1.32
2018-02-06T00:36:32.280Z,1.34
2018-02-06T00:36:36.495Z,1.35
2018-02-06T00:36:40.507Z,1.34
2018-02-06T00:36:44.412Z,1.35
2018-02-06T00:36:48.422Z,1.34
2018-02-06T00:36:52.426Z,1.42
2018-02-06T00:36:56.112Z,1.35
2018-02-06T00:37:00.011Z,1.34
2018-02-06T00:37:03.814Z,1.35
2018-02-06T00:37:07.717Z,1.35
2018-02-06T00:37:11.516Z,1.35
2018-02-06T00:37:15.524Z,1.29
2018-02-06T00:37:19.689Z,1.34
2018-02-06T00:37:23.592Z,1.34
2018-02-06T00:37:27.602Z,1.32
2018-02-06T00:37:31.507Z,1.34
2018-02-06T00:37:35.303Z,1.29
2018-02-06T00:37:39.416Z,1.34
2018-02-06T00:37:43.637Z,1.32
2018-02-06T00:37:47.651Z,1.32
2018-02-06T00:37:51.766Z,1.38
2018-02-06T00:37:55.768Z,1.32
2018-02-06T00:37:59.564Z,1.36
2018-02-06T00:38:03.874Z,1.31
2018-02-06T00:38:07.784Z,1.44
2018-02-06T00:38:11.691Z,1.43
2018-02-06T00:38:15.588Z,1.32
2018-02-06T00:38:19.497Z,1.38
2018-02-06T00:38:23.509Z,1.36
2018-02-06T00:38:27.408Z,1.35
2018-02-06T00:38:31.209Z,1.32
2018-02-06T00:38:35.008Z,1.32
2018-02-06T00:38:39.031Z,1.38
2018-02-06T00:38:42.718Z,1.47
2018-02-06T00:38:46.726Z,1.34
2018-02-06T00:38:50.682Z,1.42
2018-02-06T00:38:54.477Z,1.29
2018-02-06T00:38:58.815Z,1.32
2018-02-06T00:39:03.124Z,1.47
2018-02-06T00:39:06.921Z,1.44
2018-02-06T00:39:10.816Z,1.44
2018-02-06T00:39:14.925Z,1.43
2018-02-06T00:39:18.922Z,1.44
2018-02-06T00:39:23.134Z,1.47
2018-02-06T00:39:27.145Z,1.42
2018-02-06T00:39:30.935Z,1.38
2018-02-06T00:39:34.730Z,1.49
2018-02-06T00:39:38.685Z,1.34
2018-02-06T00:39:42.897Z,1.35
2018-02-06T00:39:47.070Z,1.47
2018-02-06T00:39:51.073Z,1.36
2018-02-06T00:39:54.866Z,1.39
2018-02-06T00:39:58.759Z,1.44
2018-02-06T00:40:02.983Z,1.34
2018-02-06T00:40:06.775Z,1.43
2018-02-06T00:40:10.772Z,1.46
2018-02-06T00:40:14.777Z,1.36
2018-02-06T00:40:18.669Z,1.44
2018-02-06T00:40:22.661Z,1.42
2018-02-06T00:40:26.557Z,1.38
2018-02-06T00:40:30.562Z,1.43
2018-02-06T00:40:34.347Z,1.39
2018-02-06T00:40:38.032Z,1.36
2018-02-06T00:40:42.032Z,1.42
2018-02-06T00:40:45.820Z,1.34
2018-02-06T00:40:49.613Z,1.49
2018-02-06T00:40:53.614Z,1.36
2018-02-06T00:40:57.402Z,1.43
2018-02-06T00:41:01.405Z,1.42
2018-02-06T00:41:05.593Z,1.5
2018-02-06T00:41:09.489Z,1.44
2018-02-06T00:41:13.486Z,1.53
2018-02-06T00:41:17.593Z,1.43
2018-02-06T00:41:21.865Z,1.46
2018-02-06T00:41:25.666Z,1.49
2018-02-06T00:41:29.771Z,1.46
2018-02-06T00:41:33.669Z,1.56
2018-02-06T00:41:37.670Z,1.43
2018-02-06T00:41:41.667Z,1.39
2018-02-06T00:41:45.564Z,1.47
2018-02-06T00:41:49.355Z,1.54
2018-02-06T00:41:53.151Z,1.49
2018-02-06T00:41:56.940Z,1.56
2018-02-06T00:42:00.843Z,1.43
2018-02-06T00:42:04.739Z,1.47
2018-02-06T00:42:08.635Z,1.43
2018-02-06T00:42:12.739Z,1.49
2018-02-06T00:42:16.630Z,1.43
2018-02-06T00:42:20.739Z,1.57
2018-02-06T00:42:24.740Z,1.53
2018-02-06T00:42:28.538Z,1.53
2018-02-06T00:42:32.435Z,1.52
2018-02-06T00:42:36.227Z,1.52
2018-02-06T00:42:40.018Z,1.49
2018-02-06T00:42:44.120Z,1.56
2018-02-06T00:42:47.797Z,1.46
2018-02-06T00:42:51.913Z,1.49
2018-02-06T00:42:55.809Z,1.54
2018-02-06T00:42:59.929Z,1.47
2018-02-06T00:43:03.920Z,1.52
2018-02-06T00:43:07.930Z,1.5
2018-02-06T00:43:12.037Z,1.54
2018-02-06T00:43:16.038Z,1.57
2018-02-06T00:43:19.935Z,1.53
2018-02-06T00:43:24.038Z,1.57
2018-02-06T00:43:27.939Z,1.54
2018-02-06T00:43:31.729Z,1.5
2018-02-06T00:43:35.737Z,1.5
2018-02-06T00:43:39.421Z,1.49
2018-02-06T00:43:43.314Z,1.56
2018-02-06T00:43:47.425Z,1.5
2018-02-06T00:43:51.429Z,1.56
2018-02-06T00:43:55.646Z,1.49
2018-02-06T00:43:59.435Z,1.52
2018-02-06T00:44:03.852Z,1.47
2018-02-06T00:44:07.866Z,1.5
2018-02-06T00:44:11.555Z,1.5
2018-02-06T00:44:15.655Z,1.49
2018-02-06T00:44:19.552Z,1.54
2018-02-06T00:44:23.339Z,1.56
2018-02-06T00:44:27.552Z,1.52
2018-02-06T00:44:31.447Z,1.54
2018-02-06T00:44:35.342Z,1.5
2018-02-06T00:44:39.141Z,1.52
2018-02-06T00:44:43.145Z,1.57
2018-02-06T00:44:47.308Z,1.49
2018-02-06T00:44:51.201Z,1.47
2018-02-06T00:44:55.199Z,1.57
2018-02-06T00:44:58.987Z,1.54
2018-02-06T00:45:03.093Z,1.56
2018-02-06T00:45:07.094Z,1.53
2018-02-06T00:45:10.887Z,1.46
2018-02-06T00:45:14.892Z,1.5
2018-02-06T00:45:18.786Z,1.61
2018-02-06T00:45:22.788Z,1.56
2018-02-06T00:45:26.891Z,1.56
2018-02-06T00:45:30.676Z,1.5
2018-02-06T00:45:34.679Z,1.52
2018-02-06T00:45:38.573Z,1.57
2018-02-06T00:45:42.574Z,1.6
2018-02-06T00:45:46.475Z,1.57
2018-02-06T00:45:50.267Z,1.56
2018-02-06T00:45:54.161Z,1.57
2018-02-06T00:45:58.166Z,1.56
2018-02-06T00:46:01.959Z,1.53
2018-02-06T00:46:05.924Z,1.57
2018-02-06T00:46:10.263Z,1.6
2018-02-06T00:46:14.164Z,1.57
2018-02-06T00:46:18.056Z,1.56
2018-02-06T00:46:22.058Z,1.57
2018-02-06T00:46:25.852Z,1.61
2018-02-06T00:46:29.642Z,1.53
2018-02-06T00:46:33.750Z,1.57
2018-02-06T00:46:37.650Z,1.57
2018-02-06T00:46:41.549Z,1.52
2018-02-06T00:46:45.547Z,1.6
2018-02-06T00:46:49.659Z,1.56
2018-02-06T00:46:53.660Z,1.57
2018-02-06T00:46:57.550Z,1.57
2018-02-06T00:47:01.354Z,1.53
2018-02-06T00:47:05.347Z,1.57
2018-02-06T00:47:09.562Z,1.64
2018-02-06T00:47:13.674Z,1.54
2018-02-06T00:47:17.462Z,1.54
2018-02-06T00:47:21.468Z,1.53
2018-02-06T00:47:25.472Z,1.61
2018-02-06T00:47:29.359Z,1.57
2018-02-06T00:47:33.044Z,1.6
2018-02-06T00:47:36.834Z,1.54
2018-02-06T00:47:40.840Z,1.53
2018-02-06T00:47:44.634Z,1.53
2018-02-06T00:47:48.743Z,1.54
2018-02-06T00:47:52.542Z,1.63
2018-02-06T00:47:56.332Z,1.64
2018-02-06T00:48:00.228Z,1.57
2018-02-06T00:48:04.119Z,1.56
2018-02-06T00:48:07.909Z,1.57
2018-02-06T00:48:11.802Z,1.61
2018-02-06T00:48:15.698Z,1.6
2018-02-06T00:48:19.603Z,1.6
2018-02-06T00:48:23.604Z,1.57
2018-02-06T00:48:27.713Z,1.57
2018-02-06T00:48:31.504Z,1.63
2018-02-06T00:48:35.291Z,1.6
2018-02-06T00:48:38.986Z,1.54
2018-02-06T00:48:42.674Z,1.61
2018-02-06T00:48:46.466Z,1.6
2018-02-06T00:48:50.257Z,1.6
2018-02-06T00:48:54.459Z,1.57
2018-02-06T00:48:58.349Z,1.6
2018-02-06T00:49:02.566Z,1.65
2018-02-06T00:49:06.568Z,1.64
2018-02-06T00:49:10.574Z,1.54
2018-02-06T00:49:14.365Z,1.65
2018-02-06T00:49:18.158Z,1.6
2018-02-06T00:49:22.153Z,1.6
2018-02-06T00:49:26.051Z,1.61
2018-02-06T00:49:30.055Z,1.64
2018-02-06T00:49:34.054Z,1.61
2018-02-06T00:49:37.943Z,1.63
2018-02-06T00:49:41.730Z,1.61
2018-02-06T00:49:45.840Z,1.65
2018-02-06T00:49:49.746Z,1.61
2018-02-06T00:49:53.749Z,1.61
2018-02-06T00:49:57.539Z,1.6
2018-02-06T00:50:02.000Z,1.61
2018-02-06T00:50:06.006Z,1.61
2018-02-06T00:50:09.803Z,1.61
2018-02-06T00:50:13.597Z,1.63
2018-02-06T00:50:17.493Z,1.63
2018-02-06T00:50:21.684Z,1.63
2018-02-06T00:50:25.479Z,1.6
2018-02-06T00:50:29.482Z,1.63
2018-02-06T00:50:33.598Z,1.67
2018-02-06T00:50:37.702Z,1.67
2018-02-06T00:50:41.498Z,1.56
2018-02-06T00:50:45.395Z,1.65
2018-02-06T00:50:49.301Z,1.65
2018-02-06T00:50:53.303Z,1.57
2018-02-06T00:50:57.411Z,1.68
2018-02-06T00:51:01.304Z,1.61
2018-02-06T00:51:05.413Z,1.63
2018-02-06T00:51:09.410Z,1.63
2018-02-06T00:51:13.516Z,1.61
2018-02-06T00:51:17.409Z,1.63
2018-02-06T00:51:21.305Z,1.65
2018-02-06T00:51:25.518Z,1.67
2018-02-06T00:51:29.415Z,1.61
2018-02-06T00:51:33.315Z,1.63
2018-02-06T00:51:37.424Z,1.65
2018-02-06T00:51:41.536Z,1.6
2018-02-06T00:51:45.329Z,1.6
2018-02-06T00:51:49.335Z,1.6
2018-02-06T00:51:53.444Z,1.63
2018-02-06T00:51:57.562Z,1.61
2018-02-06T00:52:01.463Z,1.63
2018-02-06T00:52:05.361Z,1.6
2018-02-06T00:52:09.278Z,1.56
2018-02-06T00:52:13.074Z,1.67
2018-02-06T00:52:17.190Z,1.64
2018-02-06T00:52:21.088Z,1.64
2018-02-06T00:52:25.292Z,1.65
2018-02-06T00:52:29.196Z,1.61
2018-02-06T00:52:32.997Z,1.63
2018-02-06T00:52:36.994Z,1.6